Tiempo atmosférico en la estación meteorológica de San Bartolome Tirajana, Las Tirajanas, Las Palmas (960 m.)



Fecha
DESCASC
Temp. máxima en grados centígrados (hora)
DESCASC
Temp. mínima en grados centígrados (hora)
DESCASC
Temp. media en grados centígrados
DESCASC
Racha de viento máxima en m/sg (hora)
DESCASC
Velocidad máxima media en intervalos de 10 minutos(hora)
DESCASC
Precipitaciones diarias en mm
DESCASC
Precipitaciones de 00:00 a 06:00 en mm
DESCASC
Precipitaciones de 06:00 a 12:00 en mm
DESCASC
Precipitaciones de 12:00 a 18:00 en mm
DESCASC
Precipitaciones de 18:00 a 24:00 en mm
DESCASC
19-01-2020 22.3 (14:20) 11.5 (08:00) 16.9 5.28 (01:20) 2.5 (22:10) 0 0 0 0 0
18-01-2020 18.6 (13:50) 10.8 (05:20) 14.7 6.39 (02:20) 2.5 (07:50) 0 0 0 0 0
17-01-2020 17.4 (13:50) 9.2 (07:50) 13.3 5 (11:50) 2.5 (03:30) 0 0 0 0 0
16-01-2020 17.6 (13:10) 7.4 (00:00) 12.5 4.72 (14:00) 2.22 (06:20) 0 0 0 0 0
15-01-2020 16.6 (12:30) 7.2 (00:00) 11.9 5.28 (11:30) 2.22 (07:20) 0 0 0 0 0
14-01-2020 16.8 (12:30) 7.8 (00:00) 12.3 6.11 (12:20) 2.5 (15:50) 0 0 0 0 0
13-01-2020 18 (11:50) 9.3 (00:00) 13.7 6.67 (03:20) 2.5 (02:10) 0 0 0 0 0
12-01-2020 16.2 (12:20) 6.8 (00:00) 11.5 6.39 (13:10) 3.33 (19:00) 0 0 0 0 0
11-01-2020 18.1 (13:40) 8.2 (00:00) 13.2 5.83 (11:00) 2.5 (00:50) 0 0 0 0 0
10-01-2020 19.2 (12:50) 8.5 (00:00) 13.9 18.33 (03:20) 11.39 (00:30) 0 0 0 0 0
09-01-2020 16.7 (14:50) 8.5 (00:00) 12.6 19.17 (23:10) 10.83 (23:10) 0 0 0 0 0
08-01-2020 15.2 (12:40) 9.1 (00:00) 12.2 11.67 (23:00) 5.56 (15:00) 0 0 0 0 0
07-01-2020 15.1 (14:10) 9.3 (00:00) 12.2 18.06 (00:50) 7.5 (00:40) 0 0 0 0 0
06-01-2020 16 (13:30) 8 (00:00) 12 17.78 (19:30) 8.89 (09:50) 0 0 0 0 0
05-01-2020 18.3 (13:30) 8.9 (00:00) 13.6 4.72 (15:10) 2.22 (15:00) 0 0 0 0 0
04-01-2020 17.2 (12:40) 8.3 (00:00) 12.8 5.56 (13:40) 2.78 (08:20) 0 0 0 0 0
03-01-2020 15.5 (13:30) 7.2 (00:00) 11.3 8.33 (21:40) 2.78 (00:30) 0 0 0 0 0
02-01-2020 14.8 (14:10) 7.2 (00:00) 11 6.39 (00:10) 2.5 (03:40) 0 0 0 0 0
01-01-2020 15.9 (11:30) 8.2 (00:00) 12 6.67 (22:50) 2.22 (22:50) 0 0 0 0 0
31-12-2019 19.2 (11:40) 10.2 (00:00) 14.7 5.56 (23:30) 2.5 (21:30) 0 0 0 0 0
30-12-2019 -- (--) -- (--) -- -- (--) -- (--) -- 0 0 -- 0
29-12-2019 21.6 (14:30) 12.4 (00:00) 17 6.11 (03:30) 2.22 (20:10) 0 0 0 0 0
28-12-2019 23 (13:40) 13.2 (00:00) 18.1 4.17 (23:40) 2.78 (06:30) 0 0 0 0 0
27-12-2019 23 (13:30) 13.4 (00:00) 18.2 5.83 (12:50) 2.78 (02:00) 0 0 0 0 0
26-12-2019 20 (16:10) 13.5 (00:00) 16.8 8.61 (09:40) 3.33 (04:50) 0 0 0 0 0
25-12-2019 22.1 (12:40) 15 (00:00) 18.6 9.17 (21:50) 3.33 (19:50) 0 0 0 0 0
24-12-2019 23.6 (12:20) 14.1 (00:00) 18.9 7.22 (14:30) 2.5 (13:30) 0 0 0 0 0
23-12-2019 21.8 (12:50) 11.4 (00:00) 16.6 6.11 (13:10) 3.06 (00:40) 0 0 0 0 0

Gráficas

Temp. máximas Temp. mínimas Temp. medias Precipitaciones Rachas de viento máximas Velocidades máximas media en intervalos de 10 minutos

Datos horarios

Fecha y hora oficial Temperatura (ºC) Velocidad del viento (km/h) Dirección del viento Racha (km/h) Dirección de racha Precipitación (mm) Presión (hPa) Tendencia (hPa) Humedad (%)
2020-01-21 22:00:00 -- -- -- -- -- -- -- -- --
2020-01-21 21:00:00 8.6 0 Calma 8 Sudeste 0 -- -- 89
2020-01-21 20:00:00 8.8 4 Sudeste 11 Sur 0 -- -- 88
2020-01-21 19:00:00 9.3 3 Este 9 Sudeste 0 -- -- 83
2020-01-21 18:00:00 10.1 2 Este 7 Sudeste 0 -- -- 75
2020-01-21 17:00:00 10.7 3 Este 11 Sudeste 0 -- -- 72
2020-01-21 16:00:00 11.4 3 Este 11 Este 0 -- -- 69
2020-01-21 15:00:00 11.4 4 Sudeste 19 Sudeste 0 -- -- 69
2020-01-21 14:00:00 11.7 5 Norte 31 Noroeste 0 -- -- 65
2020-01-21 13:00:00 11 14 Oeste 36 Noroeste 0 -- -- 59
2020-01-21 12:00:00 12.1 5 Sur 16 Sur 0 -- -- 62
2020-01-21 11:00:00 12.6 3 Sudeste 15 Este 0 -- -- 60
2020-01-21 10:00:00 11.5 4 Este 22 Nordeste 0 -- -- 62
2020-01-21 09:00:00 8.4 3 Sur 26 Norte 0 -- -- 66
2020-01-21 08:00:00 7.4 4 Noroeste 13 Oeste 0 -- -- 75
2020-01-21 07:00:00 7 4 Oeste 11 Noroeste 0 -- -- 81
2020-01-21 06:00:00 7.6 6 Nordeste 22 Norte 0 -- -- 74
2020-01-21 05:00:00 7.9 7 Oeste 29 Norte 0 -- -- 72
2020-01-21 04:00:00 8 8 Nordeste 18 Nordeste 0 -- -- 76
2020-01-21 03:00:00 8.4 4 Norte 15 Noroeste 0 -- -- 79
2020-01-21 02:00:00 8 4 Noroeste 9 Oeste 0 -- -- 81
2020-01-21 01:00:00 7.7 6 Oeste 9 Noroeste 0 -- -- 88
2020-01-21 00:00:00 8.4 3 Noroeste 11 Norte 0 -- -- 86
2020-01-20 23:00:00 8.6 4 Oeste 7 Oeste 0 -- -- 89
2020-01-20 22:00:00 9 3 Sudoeste 8 Oeste 0 -- -- 89
2020-01-20 21:00:00 9.8 2 Sur 11 Nordeste 0 -- -- 87
2020-01-20 20:00:00 10.5 7 Nordeste 15 Nordeste 0 -- -- 69
2020-01-20 19:00:00 11.5 2 Este 10 Este 0 -- -- 85
2020-01-20 18:00:00 11.9 3 Sur 12 Sur 0 -- -- 83
2020-01-20 17:00:00 12.6 5 Sur 12 Sur 0 -- -- 80
2020-01-20 16:00:00 14.7 4 Sudeste 17 Sur 0 -- -- 71
2020-01-20 15:00:00 16 4 Este 15 Este 0 -- -- 65
2020-01-20 14:00:00 17.4 4 Este 17 Sur 0 -- -- 60
2020-01-20 13:00:00 15.5 6 Sur 16 Sudeste 0 -- -- 66
2020-01-20 12:00:00 15.5 5 Este 14 Este 0 -- -- 62
2020-01-20 11:00:00 12.4 2 Nordeste 9 Este 0 -- -- 77
2020-01-20 10:00:00 11.9 4 Este 11 Este 0 -- -- 74
2020-01-20 09:00:00 8.8 2 Norte 9 Noroeste 0 -- -- 87
2020-01-20 08:00:00 7.8 6 Noroeste 11 Noroeste 0 -- -- 86
2020-01-20 07:00:00 7.9 6 Noroeste 12 Noroeste 0 -- -- 73
2020-01-20 06:00:00 8.5 2 Nordeste 8 Noroeste 0 -- -- 75
2020-01-20 05:00:00 9.7 3 Sur 8 Nordeste 0 -- -- 72
2020-01-20 04:00:00 12.1 5 Sudoeste 14 Noroeste 0 -- -- 46
2020-01-20 03:00:00 11.4 5 Noroeste 12 Oeste 0 -- -- 51
2020-01-20 02:00:00 11.4 5 Noroeste 9 Noroeste 0 -- -- 52
2020-01-20 01:00:00 12.3 3 Norte 8 Oeste 0 -- -- 48
2020-01-20 00:00:00 12.7 3 Sur 14 Oeste 0 -- -- 53
2020-01-19 23:00:00 12.8 3 Sudoeste 17 Sur 0 -- -- 50
2020-01-19 22:00:00 13.3 7 Sudoeste 15 Sur 0 -- -- 47
2020-01-19 21:00:00 12.5 7 Sudoeste 12 Sudoeste 0 -- -- 44
2020-01-19 20:00:00 12.8 3 Oeste 10 Oeste 0 -- -- 54
2020-01-19 19:00:00 13.9 3 Nordeste 9 Nordeste 0 -- -- 49
2020-01-19 18:00:00 16.5 2 Este 6 Nordeste 0 -- -- 46
2020-01-19 17:00:00 18.9 3 Sudeste 13 Este 0 -- -- 33
2020-01-19 16:00:00 20.7 4 Este 13 Sudeste 0 -- -- 42
2020-01-19 15:00:00 21.7 4 Sudeste 15 Sudeste 0 -- -- 38
2020-01-19 14:00:00 21.8 5 Sudeste 15 Este 0 -- -- 30
2020-01-19 13:00:00 21.9 5 Este 19 Sudeste 0 -- -- 19
2020-01-19 12:00:00 21.6 3 Este 12 Este 0 -- -- 16
2020-01-19 11:00:00 19.4 3 Este 12 Este 0 -- -- 18
2020-01-19 10:00:00 16.4 3 Sudeste 9 Sur 0 -- -- 20
2020-01-19 09:00:00 13.1 4 Sur 9 Oeste 0 -- -- 22
2020-01-19 08:00:00 11.5 6 Sudoeste 14 Sudoeste 0 -- -- 22
2020-01-19 07:00:00 11.9 6 Sudoeste 14 Sudoeste 0 -- -- 21
2020-01-19 06:00:00 11.9 6 Sudoeste 13 Sur 0 -- -- 21
2020-01-19 05:00:00 12.4 5 Sudoeste 12 Sudoeste 0 -- -- 20
2020-01-19 04:00:00 11.8 5 Sudoeste 11 Sudoeste 0 -- -- 21
2020-01-19 03:00:00 12.1 4 Sudoeste 10 Sur 0 -- -- 21
2020-01-19 02:00:00 13.3 4 Sur 19 Sudeste 0 -- -- 20
2020-01-19 01:00:00 14 7 Sudeste 16 Sudeste 0 -- -- 17
2020-01-19 00:00:00 13.5 7 Sur 13 Sur 0 -- -- 12
2020-01-18 23:00:00 14.3 5 Sur 13 Sur 0 -- -- 9
2020-01-18 22:00:00 14 7 Sur 13 Sudeste 0 -- -- 11
2020-01-18 21:00:00 14 6 Sudeste 14 Sudeste 0 -- -- 13
2020-01-18 20:00:00 14 6 Sudoeste 11 Sur 0 -- -- 17
2020-01-18 19:00:00 14.9 6 Sur 13 Sudeste 0 -- -- 20
2020-01-18 18:00:00 14.6 5 Sudoeste 7 Sudoeste 0 -- -- 43
2020-01-18 17:00:00 17.1 3 Sudeste 13 Este 0 -- -- 38
2020-01-18 16:00:00 17.5 4 Este 14 Sudeste 0 -- -- 38
2020-01-18 15:00:00 18.6 5 Este 14 Este 0 -- -- 35
2020-01-18 14:00:00 18.5 4 Este 15 Este 0 -- -- 32
2020-01-18 13:00:00 17.8 5 Este 15 Este 0 -- -- 29
2020-01-18 12:00:00 18 4 Este 14 Este 0 -- -- 26
2020-01-18 11:00:00 16.6 4 Este 13 Sudeste 0 -- -- 26
2020-01-18 10:00:00 14.7 5 Sur 12 Sur 0 -- -- 25
2020-01-18 09:00:00 12.2 6 Sur 13 Sudoeste 0 -- -- 28
2020-01-18 08:00:00 11 7 Sur 23 Sur 0 -- -- 29
2020-01-18 07:00:00 11.2 6 Sur 15 Sudeste 0 -- -- 27
2020-01-18 06:00:00 11.4 6 Sur 15 Sudeste 0 -- -- 24
2020-01-18 05:00:00 10.9 4 Este 17 Este 0 -- -- 24
2020-01-18 04:00:00 11.7 4 Este 16 Este 0 -- -- 25
2020-01-18 03:00:00 12.6 5 Sudeste 23 Este 0 -- -- 22
2020-01-18 02:00:00 13 5 Nordeste 22 Este 0 -- -- 20
2020-01-18 01:00:00 12.1 5 Este 21 Este 0 -- -- 20
2020-01-18 00:00:00 12.4 4 Este 16 Este 0 -- -- 17
2020-01-17 23:00:00 13 5 Sudoeste 13 Sudoeste 0 -- -- 13
2020-01-17 22:00:00 12.9 6 Sudoeste 10 Sur 0 -- -- 20
2020-01-17 21:00:00 12.6 6 Sur 14 Sudoeste 0 -- -- 23
2020-01-17 20:00:00 11.9 6 Oeste 12 Sur 0 -- -- 25
2020-01-17 19:00:00 11.3 9 Sudoeste 17 Sudeste 0 -- -- 32
2020-01-17 18:00:00 12.9 2 Nordeste 6 Sudeste 0 -- -- 46
2020-01-17 17:00:00 15.9 2 Este 13 Sudeste 0 -- -- 41
2020-01-17 16:00:00 16.7 4 Sudeste 15 Sudeste 0 -- -- 38
2020-01-17 15:00:00 17 5 Este 15 Sudeste 0 -- -- 39
2020-01-17 14:00:00 17.2 5 Sudeste 18 Sudeste 0 -- -- 38
2020-01-17 13:00:00 17 5 Este 16 Este 0 -- -- 37
2020-01-17 12:00:00 16.2 5 Sudeste 18 Sudeste 0 -- -- 33
2020-01-17 11:00:00 15.6 4 Este 15 Este 0 -- -- 31
2020-01-17 10:00:00 13.4 4 Sudeste 10 Sudeste 0 -- -- 35
2020-01-17 09:00:00 10.5 2 Nordeste 10 Sudeste 0 -- -- 32
2020-01-17 08:00:00 9.4 5 Sur 12 Sudeste 0 -- -- 31
2020-01-17 07:00:00 11.1 6 Sur 13 Sur 0 -- -- 26
2020-01-17 06:00:00 11.5 7 Sur 14 Sudeste 0 -- -- 24
2020-01-17 05:00:00 10.4 2 Sur 11 Sudoeste 0 -- -- 21
2020-01-17 04:00:00 11.2 8 Sur 14 Sur 0 -- -- 14
2020-01-17 03:00:00 11.5 7 Sur 11 Sur 0 -- -- 16
2020-01-17 02:00:00 11.8 6 Sur 13 Sur 0 -- -- 17
2020-01-17 01:00:00 10.3 5 Sudoeste 12 Sudoeste 0 -- -- 25
2020-01-17 00:00:00 9.8 8 Sudoeste 17 Sudoeste 0 -- -- 34
2020-01-16 23:00:00 9.1 6 Sudoeste 12 Sudoeste 0 -- -- 43
2020-01-16 22:00:00 9 7 Sudoeste 10 Sudoeste 0 -- -- 41
2020-01-16 21:00:00 8.8 6 Sudoeste 9 Sudoeste 0 -- -- 44
2020-01-16 20:00:00 9.1 6 Sudoeste 8 Sudoeste 0 -- -- 48
2020-01-16 19:00:00 10.4 3 Sudoeste 7 Sudoeste 0 -- -- 48
2020-01-16 18:00:00 12.7 3 Sudoeste 9 Sudeste 0 -- -- 43
2020-01-16 17:00:00 14.9 5 Sudeste 14 Sudeste 0 -- -- 41
2020-01-16 16:00:00 15.9 6 Sudeste 17 Este 0 -- -- 38
2020-01-16 15:00:00 16.4 6 Sudeste 17 Sudeste 0 -- -- 43
2020-01-16 14:00:00 17.3 6 Este 17 Sudeste 0 -- -- 42
2020-01-16 13:00:00 17.5 5 Este 16 Este 0 -- -- 36
2020-01-16 12:00:00 16.9 6 Este 17 Este 0 -- -- 34
2020-01-16 11:00:00 15.8 5 Este 14 Este 0 -- -- 29
2020-01-16 10:00:00 13.4 4 Este 12 Este 0 -- -- 32
2020-01-16 09:00:00 9.2 4 Noroeste 10 Noroeste 0 -- -- 40
2020-01-16 08:00:00 7.4 7 Noroeste 10 Noroeste 0 -- -- 43
2020-01-16 07:00:00 7.9 5 Oeste 11 Noroeste 0 -- -- 42
2020-01-16 06:00:00 7.7 6 Oeste 8 Noroeste 0 -- -- 41
2020-01-16 05:00:00 7.8 6 Noroeste 9 Oeste 0 -- -- 41
2020-01-16 04:00:00 8.6 4 Oeste 8 Noroeste 0 -- -- 39
2020-01-16 03:00:00 8.9 5 Oeste 8 Noroeste 0 -- -- 38
2020-01-16 02:00:00 9 5 Noroeste 9 Noroeste 0 -- -- 38
2020-01-16 01:00:00 8.6 6 Noroeste 9 Noroeste 0 -- -- 38
2020-01-16 00:00:00 9.1 4 Oeste 9 Noroeste 0 -- -- 37
2020-01-15 23:00:00 8.9 5 Oeste 12 Noroeste 0 -- -- 38
2020-01-15 22:00:00 8.9 4 Noroeste 9 Noroeste 0 -- -- 40
2020-01-15 21:00:00 8.2 8 Noroeste 9 Noroeste 0 -- -- 49
2020-01-15 20:00:00 8.8 4 Sudoeste 6 Sudoeste 0 -- -- 52
2020-01-15 19:00:00 9.6 5 Sudoeste 6 Sudoeste 0 -- -- 57
2020-01-15 18:00:00 11.5 3 Sur 10 Sudeste 0 -- -- 59
2020-01-15 17:00:00 14.5 4 Sudeste 14 Este 0 -- -- 52
2020-01-15 16:00:00 15.8 4 Este 16 Este 0 -- -- 43
2020-01-15 15:00:00 16.3 5 Sudeste 18 Este 0 -- -- 35
2020-01-15 14:00:00 16.5 5 Este 16 Este 0 -- -- 35
2020-01-15 13:00:00 16.3 6 Sudeste 17 Este 0 -- -- 31
2020-01-15 12:00:00 16.2 5 Este 19 Este 0 -- -- 35
2020-01-15 11:00:00 15.1 5 Este 16 Este 0 -- -- 27
2020-01-15 10:00:00 12.9 4 Nordeste 11 Este 0 -- -- 30
2020-01-15 09:00:00 8.8 3 Noroeste 9 Noroeste 0 -- -- 38
2020-01-15 08:00:00 8.7 6 Sudoeste 10 Noroeste 0 -- -- 37
2020-01-15 07:00:00 7.9 5 Oeste 9 Noroeste 0 -- -- 40
2020-01-15 06:00:00 7.6 6 Noroeste 10 Noroeste 0 -- -- 42
2020-01-15 05:00:00 8.1 4 Sudoeste 10 Noroeste 0 -- -- 41
2020-01-15 04:00:00 8.2 5 Oeste 10 Sudoeste 0 -- -- 40
2020-01-15 03:00:00 8.6 4 Noroeste 10 Noroeste 0 -- -- 40
2020-01-15 02:00:00 8.6 6 Noroeste 14 Oeste 0 -- -- 40
2020-01-15 01:00:00 8.1 6 Oeste 9 Noroeste 0 -- -- 41
2020-01-15 00:00:00 7.9 5 Oeste 6 Oeste 0 -- -- 42
2020-01-14 23:00:00 8.4 4 Oeste 8 Noroeste 0 -- -- 41
2020-01-14 22:00:00 8.2 5 Oeste 8 Oeste 0 -- -- 42
2020-01-14 21:00:00 8.8 4 Oeste 6 Oeste 0 -- -- 41
2020-01-14 20:00:00 8.6 5 Oeste 9 Noroeste 0 -- -- 52
2020-01-14 19:00:00 10 4 Noroeste 8 Sudoeste 0 -- -- 48
2020-01-14 18:00:00 11.6 3 Sur 19 Sur 0 -- -- 45
2020-01-14 17:00:00 13.7 8 Sur 19 Sur 0 -- -- 38
2020-01-14 16:00:00 14.7 5 Sudeste 19 Sudeste 0 -- -- 36
2020-01-14 15:00:00 15.4 8 Sudeste 20 Sur 0 -- -- 39
2020-01-14 14:00:00 16.2 5 Sudeste 18 Sudeste 0 -- -- 32
2020-01-14 13:00:00 15.7 6 Este 22 Sudeste 0 -- -- 35
2020-01-14 12:00:00 16.4 5 Este 21 Sudeste 0 -- -- 39
2020-01-14 11:00:00 15.3 5 Este 17 Este 0 -- -- 42
2020-01-14 10:00:00 12.1 5 Sur 14 Sur 0 -- -- 49
2020-01-14 09:00:00 9.7 5 Sur 11 Sur 0 -- -- 60
2020-01-14 08:00:00 8.5 3 Sudoeste 9 Sudoeste 0 -- -- 53
2020-01-14 07:00:00 9.5 3 Sudoeste 13 Sur 0 -- -- 43
2020-01-14 06:00:00 8.6 5 Noroeste 9 Noroeste 0 -- -- 44
2020-01-14 05:00:00 9.4 4 Oeste 10 Oeste 0 -- -- 41
2020-01-14 04:00:00 9.5 5 Oeste 8 Oeste 0 -- -- 39
2020-01-14 03:00:00 9.8 4 Noroeste 9 Sudoeste 0 -- -- 38
2020-01-14 02:00:00 9.6 5 Oeste 8 Oeste 0 -- -- 38
2020-01-14 01:00:00 10.1 5 Oeste 8 Noroeste 0 -- -- 37
2020-01-14 00:00:00 10.4 5 Oeste 10 Noroeste 0 -- -- 35
2020-01-13 23:00:00 9.9 5 Oeste 9 Oeste 0 -- -- 37
2020-01-13 22:00:00 10 6 Oeste 10 Oeste 0 -- -- 38
2020-01-13 21:00:00 9.8 6 Noroeste 10 Oeste 0 -- -- 39
2020-01-13 20:00:00 9.7 7 Noroeste 10 Noroeste 0 -- -- 43
2020-01-13 19:00:00 10.6 5 Noroeste 9 Sur 0 -- -- 47
2020-01-13 18:00:00 12.3 6 Sur 15 Sur 0 -- -- 43
2020-01-13 17:00:00 15.5 6 Sudeste 13 Sudeste 0 -- -- 45
2020-01-13 16:00:00 16.2 4 Este 19 Este 0 -- -- 44
2020-01-13 15:00:00 16.7 6 Este 17 Sudeste 0 -- -- 46
2020-01-13 14:00:00 16.7 9 Este 19 Este 0 -- -- 45
2020-01-13 13:00:00 16.2 5 Este 22 Este 0 -- -- 57
2020-01-13 12:00:00 17.9 6 Este 19 Este 0 -- -- 48
2020-01-13 11:00:00 16.9 6 Este 17 Este 0 -- -- 42
2020-01-13 10:00:00 14.5 8 Este 13 Este 0 -- -- 46
2020-01-13 09:00:00 10.9 2 Oeste 8 Sudoeste 0 -- -- 53
2020-01-13 08:00:00 9.5 5 Oeste 8 Oeste 0 -- -- 61
2020-01-13 07:00:00 9.9 3 Norte 7 Nordeste 0 -- -- 64
2020-01-13 06:00:00 10 3 Norte 18 Este 0 -- -- 62
2020-01-13 05:00:00 9.8 3 Noroeste 19 Nordeste 0 -- -- 60
2020-01-13 04:00:00 9.9 4 Nordeste 24 Nordeste 0 -- -- 52
2020-01-13 03:00:00 10.2 4 Sur 23 Este 0 -- -- 49
2020-01-13 02:00:00 10.7 7 Este 20 Este 0 -- -- 44
2020-01-13 01:00:00 10.7 6 Este 22 Nordeste 0 -- -- 39
2020-01-13 00:00:00 10.7 4 Nordeste 14 Nordeste 0 -- -- 38
2020-01-12 23:00:00 10.9 3 Nordeste 15 Este 0 -- -- 36
2020-01-12 22:00:00 11.2 6 Este 21 Nordeste 0 -- -- 34
2020-01-12 21:00:00 11 3 Nordeste 13 Este 0 -- -- 36
2020-01-12 20:00:00 10.8 0 Calma 12 Noroeste 0 -- -- 38
2020-01-12 19:00:00 10.1 12 Oeste 17 Noroeste 0 -- -- 56
2020-01-12 18:00:00 12.2 2 Sudoeste 8 Sudoeste 0 -- -- 52
2020-01-12 17:00:00 13.7 5 Sudeste 15 Sur 0 -- -- 52
2020-01-12 16:00:00 14.9 6 Sudeste 22 Sudeste 0 -- -- 46
2020-01-12 15:00:00 15.6 7 Sudeste 21 Sudeste 0 -- -- 45
2020-01-12 14:00:00 16 6 Sudeste 23 Sur 0 -- -- 57
2020-01-12 13:00:00 15.2 7 Sudeste 22 Sudeste 0 -- -- 63
2020-01-12 12:00:00 15.8 5 Sur 17 Sudeste 0 -- -- 58
2020-01-12 11:00:00 14.5 5 Este 14 Sudeste 0 -- -- 62
2020-01-12 10:00:00 11.4 4 Este 10 Este 0 -- -- 76
2020-01-12 09:00:00 8.5 3 Sudoeste 11 Noroeste 0 -- -- 89
2020-01-12 08:00:00 6.8 8 Noroeste 10 Noroeste 0 -- -- 90
2020-01-12 07:00:00 7.1 4 Noroeste 7 Sudoeste 0 -- -- 90
2020-01-12 06:00:00 7.5 4 Sudoeste 10 Noroeste 0 -- -- 90
2020-01-12 05:00:00 7.4 4 Oeste 8 Noroeste 0 -- -- 90
2020-01-12 04:00:00 7.7 6 Noroeste 9 Noroeste 0 -- -- 92
2020-01-12 03:00:00 8 4 Oeste 8 Noroeste 0 -- -- 90
2020-01-12 02:00:00 8.3 4 Noroeste 10 Noroeste 0 -- -- 86
2020-01-12 01:00:00 8.6 2 Noroeste 10 Sudoeste 0 -- -- 88
2020-01-12 00:00:00 8.7 2 Norte 8 Noroeste 0 -- -- 88
2020-01-11 23:00:00 9.2 3 Sudoeste 8 Oeste 0 -- -- 92
2020-01-11 22:00:00 9.2 3 Oeste 7 Oeste 0 -- -- 87
2020-01-11 21:00:00 9.9 0 Calma 5 Sudeste 0 -- -- 86
2020-01-11 20:00:00 10.6 0 Calma 6 Sudeste 0 -- -- 85
2020-01-11 19:00:00 11.5 2 Sudeste 9 Este 0 -- -- 81
2020-01-11 18:00:00 12.2 0 Calma 10 Sur 0 -- -- 80
2020-01-11 17:00:00 13.1 3 Sur 13 Sur 0 -- -- 76
2020-01-11 16:00:00 14.4 5 Sudeste 14 Este 0 -- -- 72
2020-01-11 15:00:00 15.5 5 Sudeste 17 Sur 0 -- -- 67
2020-01-11 14:00:00 17.4 5 Sudeste 17 Sudeste 0 -- -- 59
2020-01-11 13:00:00 17.3 6 Este 17 Este 0 -- -- 59
2020-01-11 12:00:00 16.1 5 Sudeste 14 Sur 0 -- -- 63
2020-01-11 11:00:00 15.1 6 Este 21 Este 0 -- -- 65
2020-01-11 10:00:00 12.3 5 Este 10 Este 0 -- -- 76
2020-01-11 09:00:00 9 3 Nordeste 8 Oeste 0 -- -- 77
2020-01-11 08:00:00 8.9 2 Sudeste 7 Oeste 0 -- -- 70
2020-01-11 07:00:00 9.1 4 Sudoeste 7 Sur 0 -- -- 65
2020-01-11 06:00:00 10.3 2 Sudeste 11 Noroeste 0 -- -- 49
2020-01-11 05:00:00 10.2 4 Noroeste 11 Oeste 0 -- -- 33
2020-01-11 04:00:00 9.4 7 Sudoeste 9 Oeste 0 -- -- 57
2020-01-11 03:00:00 9.1 5 Noroeste 9 Noroeste 0 -- -- 60
2020-01-11 02:00:00 9.4 4 Noroeste 8 Oeste 0 -- -- 60
2020-01-11 01:00:00 8.5 5 Noroeste 11 Oeste 0 -- -- 85
2020-01-11 00:00:00 8.5 4 Noroeste 9 Sudoeste 0 -- -- 87
2020-01-10 23:00:00 8.9 4 Oeste 8 Sudoeste 0 -- -- 80
2020-01-10 22:00:00 9.5 6 Noroeste 15 Noroeste 0 -- -- 91
2020-01-10 21:00:00 10.4 4 Oeste 8 Oeste 0 -- -- 91
2020-01-10 20:00:00 11.7 3 Sudeste 9 Sur 0 -- -- 84
2020-01-10 19:00:00 12.2 0 Calma 11 Sur 0 -- -- 78
2020-01-10 18:00:00 13.3 2 Este 10 Sur 0 -- -- 74
2020-01-10 17:00:00 15.8 5 Sur 15 Sur 0 -- -- 68
2020-01-10 16:00:00 17.6 6 Sur 28 Sur 0 -- -- 58
2020-01-10 15:00:00 18.3 12 Sudeste 32 Sur 0 -- -- 52
2020-01-10 14:00:00 18 13 Sudoeste 30 Sudoeste 0 -- -- 53
2020-01-10 13:00:00 18.6 7 Sur 25 Noroeste 0 -- -- 53
2020-01-10 12:00:00 16.7 9 Nordeste 37 Este 0 -- -- 56
2020-01-10 11:00:00 16.1 11 Este 39 Nordeste 0 -- -- 61
2020-01-10 10:00:00 15.3 10 Oeste 22 Sur 0 -- -- 61
2020-01-10 09:00:00 13 8 Sudoeste 26 Sudoeste 0 -- -- 64
2020-01-10 08:00:00 12.1 4 Sur 29 Norte 0 -- -- 66
2020-01-10 07:00:00 12.5 9 Noroeste 42 Norte 0 -- -- 67
2020-01-10 06:00:00 11.5 8 Norte 30 Noroeste 0 -- -- 63
2020-01-10 05:00:00 11.5 12 Sudoeste 50 Nordeste 0 -- -- 63
2020-01-10 04:00:00 11.3 24 Norte 66 Nordeste 0 -- -- 64
2020-01-10 03:00:00 11.3 18 Norte 39 Nordeste 0 -- -- 64
2020-01-10 02:00:00 11.8 12 Norte 44 Noroeste 0 -- -- 63
2020-01-10 01:00:00 13.3 8 Sudoeste 65 Nordeste 0 -- -- 36
2020-01-10 00:00:00 13.9 35 Nordeste 69 Nordeste 0 -- -- 29
2020-01-09 23:00:00 12.3 24 Nordeste 56 Nordeste 0 -- -- 48
2020-01-09 22:00:00 11.7 21 Nordeste 48 Nordeste 0 -- -- 56
2020-01-09 21:00:00 12.3 13 Sur 55 Norte 0 -- -- 47
2020-01-09 20:00:00 11.7 28 Norte 55 Nordeste 0 -- -- 67
2020-01-09 19:00:00 11.8 22 Norte 42 Norte 0 -- -- 55
2020-01-09 18:00:00 13.1 3 Sur 12 Sudoeste 0 -- -- 65
2020-01-09 17:00:00 16.3 4 Sudeste 14 Sudeste 0 -- -- 49
2020-01-09 16:00:00 16.5 5 Sudeste 27 Este 0 -- -- 49
2020-01-09 15:00:00 16.5 8 Este 40 Este 0 -- -- 42
2020-01-09 14:00:00 16.4 15 Este 34 Nordeste 0 -- -- 43
2020-01-09 13:00:00 15.6 12 Este 37 Nordeste 0 -- -- 48
2020-01-09 12:00:00 15.5 8 Sur 20 Sur 0 -- -- 52
2020-01-09 11:00:00 14.7 6 Sudeste 19 Sudeste 0 -- -- 50
2020-01-09 10:00:00 13 4 Este 12 Nordeste 0 -- -- 56
2020-01-09 09:00:00 10 3 Nordeste 16 Sudoeste 0 -- -- 65
2020-01-09 08:00:00 9.6 9 Sudoeste 43 Nordeste 0 -- -- 65
2020-01-09 07:00:00 10.4 12 Norte 45 Norte 0 -- -- 66
2020-01-09 06:00:00 10.3 31 Nordeste 53 Nordeste 0 -- -- 58
2020-01-09 05:00:00 10.3 6 Noroeste 36 Norte 0 -- -- 63
2020-01-09 04:00:00 9.2 10 Norte 19 Norte 0 -- -- 67
2020-01-09 03:00:00 9.8 10 Sur 27 Norte 0 -- -- 70
2020-01-09 02:00:00 10.1 4 Nordeste 27 Nordeste 0 -- -- 59
2020-01-09 01:00:00 10.5 15 Norte 35 Norte 0 -- -- 63
2020-01-09 00:00:00 10.7 11 Noroeste 33 Noroeste 0 -- -- 65
2020-01-08 23:00:00 10.7 17 Norte 42 Norte 0 -- -- 64
2020-01-08 22:00:00 10.3 13 Norte 33 Norte 0 -- -- 57
2020-01-08 21:00:00 10.5 10 Noroeste 26 Norte 0 -- -- 63
2020-01-08 20:00:00 10.7 6 Noroeste 31 Norte 0 -- -- 61
2020-01-08 19:00:00 11.3 9 Norte 41 Nordeste 0 -- -- 63
2020-01-08 18:00:00 11.7 10 Nordeste 28 Noroeste 0 -- -- 62
2020-01-08 17:00:00 12.3 15 Norte 32 Nordeste 0 -- -- 49
2020-01-08 16:00:00 13.4 15 Norte 33 Norte 0 -- -- 48
2020-01-08 15:00:00 13.6 20 Nordeste 34 Nordeste 0 -- -- 51
2020-01-08 14:00:00 14.5 13 Nordeste 23 Nordeste 0 -- -- 47
2020-01-08 13:00:00 14.8 8 Este 25 Este 0 -- -- 53
2020-01-08 12:00:00 14.6 8 Este 29 Sudeste 0 -- -- 50
2020-01-08 11:00:00 14.3 8 Este 26 Nordeste 0 -- -- 60
2020-01-08 10:00:00 13.3 9 Este 31 Este 0 -- -- 57
2020-01-08 09:00:00 10.4 6 Sudeste 39 Este 0 -- -- 59
2020-01-08 08:00:00 9.6 8 Este 24 Este 0 -- -- 67
2020-01-08 07:00:00 9.6 6 Sudeste 21 Este 0 -- -- 65
2020-01-08 06:00:00 9.7 6 Sudeste 27 Sur 0 -- -- 65
2020-01-08 05:00:00 9.9 10 Este 32 Este 0 -- -- 65
2020-01-08 04:00:00 10.2 10 Este 36 Este 0 -- -- 64
2020-01-08 03:00:00 10 8 Sudeste 33 Este 0 -- -- 61
2020-01-08 02:00:00 10.3 18 Este 38 Sudeste 0 -- -- 63
2020-01-08 01:00:00 10.3 10 Sudeste 28 Sudeste 0 -- -- 55
2020-01-08 00:00:00 10.4 6 Sudeste 26 Noroeste 0 -- -- 47
2020-01-07 23:00:00 10.3 8 Noroeste 25 Sur 0 -- -- 54
2020-01-07 22:00:00 10.7 8 Sur 23 Sur 0 -- -- 54
2020-01-07 21:00:00 10.6 8 Sur 25 Sur 0 -- -- 65
2020-01-07 20:00:00 10.1 8 Sudoeste 17 Sudoeste 0 -- -- 55
2020-01-07 19:00:00 10.8 6 Sur 25 Sudeste 0 -- -- 52
2020-01-07 18:00:00 11.5 5 Sudoeste 16 Sudeste 0 -- -- 39
2020-01-07 17:00:00 13.4 4 Este 28 Este 0 -- -- 29
2020-01-07 16:00:00 14.1 6 Este 28 Nordeste 0 -- -- 36
2020-01-07 15:00:00 14.4 9 Este 30 Este 0 -- -- 34
2020-01-07 14:00:00 14.8 10 Este 32 Este 0 -- -- 39
2020-01-07 13:00:00 13.8 14 Este 30 Nordeste 0 -- -- 48
2020-01-07 12:00:00 13.5 15 Nordeste 33 Nordeste 0 -- -- 51
2020-01-07 11:00:00 13.2 9 Este 31 Nordeste 0 -- -- 57
2020-01-07 10:00:00 11.6 9 Este 27 Este 0 -- -- 64
2020-01-07 09:00:00 9.7 7 Este 30 Este 0 -- -- 77
2020-01-07 08:00:00 9.4 13 Este 31 Este 0 -- -- 71
2020-01-07 07:00:00 9.5 7 Sudeste 24 Este 0 -- -- 77
2020-01-07 06:00:00 9.6 7 Este 37 Este 0 -- -- 74
2020-01-07 05:00:00 10.3 13 Este 47 Este 0 -- -- 71
2020-01-07 04:00:00 10.3 8 Sudoeste 28 Este 0 -- -- 65
2020-01-07 03:00:00 10.2 6 Nordeste 52 Nordeste 0 -- -- 69
2020-01-07 02:00:00 10.3 15 Nordeste 57 Nordeste 0 -- -- 75
2020-01-07 01:00:00 10.9 21 Nordeste 65 Nordeste 0 -- -- 69
2020-01-07 00:00:00 10.4 17 Nordeste 57 Nordeste 0 -- -- 67
2020-01-06 23:00:00 10.5 19 Nordeste 55 Nordeste 0 -- -- 73
2020-01-06 22:00:00 10.7 10 Nordeste 52 Norte 0 -- -- 71
2020-01-06 21:00:00 11.2 21 Norte 51 Norte 0 -- -- 70
2020-01-06 20:00:00 11.4 19 Nordeste 64 Nordeste 0 -- -- 64
2020-01-06 19:00:00 11.3 20 Norte 63 Nordeste 0 -- -- 62
2020-01-06 18:00:00 11.9 12 Norte 41 Nordeste 0 -- -- 56
2020-01-06 17:00:00 12.7 15 Nordeste 42 Nordeste 0 -- -- 54
2020-01-06 16:00:00 13.8 17 Nordeste 41 Este 0 -- -- 52
2020-01-06 15:00:00 14.9 9 Nordeste 30 Nordeste 0 -- -- 47
2020-01-06 14:00:00 15.2 6 Nordeste 38 Nordeste 0 -- -- 48
2020-01-06 13:00:00 15.4 7 Este 40 Nordeste 0 -- -- 45
2020-01-06 12:00:00 14.1 17 Nordeste 36 Nordeste 0 -- -- 55
2020-01-06 11:00:00 13.7 9 Norte 35 Norte 0 -- -- 61
2020-01-06 10:00:00 11.9 26 Nordeste 54 Nordeste 0 -- -- 64
2020-01-06 09:00:00 10.9 16 Nordeste 44 Nordeste 0 -- -- 65